sensor_id;sensor_type;location;lat;lon;timestamp;temperature;humidity
2389;DHT22;1205;47.984;7.668;2022-07-29T00:00:41;21.70;97.70
2389;DHT22;1205;47.984;7.668;2022-07-29T00:03:10;21.40;98.10
2389;DHT22;1205;47.984;7.668;2022-07-29T00:05:39;21.40;98.30
2389;DHT22;1205;47.984;7.668;2022-07-29T00:08:05;21.40;98.40
2389;DHT22;1205;47.984;7.668;2022-07-29T00:10:31;21.30;98.60
2389;DHT22;1205;47.984;7.668;2022-07-29T00:12:57;21.30;98.50
2389;DHT22;1205;47.984;7.668;2022-07-29T00:15:22;21.20;98.90
2389;DHT22;1205;47.984;7.668;2022-07-29T00:17:48;21.10;99.10
2389;DHT22;1205;47.984;7.668;2022-07-29T00:20:14;21.10;99.30
2389;DHT22;1205;47.984;7.668;2022-07-29T00:22:39;21.20;99.30
2389;DHT22;1205;47.984;7.668;2022-07-29T00:25:06;21.20;99.30
2389;DHT22;1205;47.984;7.668;2022-07-29T00:27:33;21.30;99.30
2389;DHT22;1205;47.984;7.668;2022-07-29T00:29:59;21.20;99.10
2389;DHT22;1205;47.984;7.668;2022-07-29T00:32:25;21.20;99.50
2389;DHT22;1205;47.984;7.668;2022-07-29T00:34:51;21.30;99.40
2389;DHT22;1205;47.984;7.668;2022-07-29T00:37:35;21.20;99.40
2389;DHT22;1205;47.984;7.668;2022-07-29T00:40:01;21.20;99.50
2389;DHT22;1205;47.984;7.668;2022-07-29T00:42:27;21.30;99.20
2389;DHT22;1205;47.984;7.668;2022-07-29T00:44:52;21.40;99.10
2389;DHT22;1205;47.984;7.668;2022-07-29T00:47:18;21.40;98.80
2389;DHT22;1205;47.984;7.668;2022-07-29T00:49:44;21.40;98.80
2389;DHT22;1205;47.984;7.668;2022-07-29T00:52:11;21.50;98.70
2389;DHT22;1205;47.984;7.668;2022-07-29T00:54:38;21.60;98.50
2389;DHT22;1205;47.984;7.668;2022-07-29T00:57:06;21.50;98.40
2389;DHT22;1205;47.984;7.668;2022-07-29T00:59:32;21.40;98.70
2389;DHT22;1205;47.984;7.668;2022-07-29T01:01:58;21.20;99.10
2389;DHT22;1205;47.984;7.668;2022-07-29T01:04:24;21.20;99.20
2389;DHT22;1205;47.984;7.668;2022-07-29T01:06:50;21.10;99.30
2389;DHT22;1205;47.984;7.668;2022-07-29T01:09:17;21.10;99.20
2389;DHT22;1205;47.984;7.668;2022-07-29T01:11:45;21.40;99.20
2389;DHT22;1205;47.984;7.668;2022-07-29T01:14:13;21.20;99.20
2389;DHT22;1205;47.984;7.668;2022-07-29T01:16:47;21.00;99.40
2389;DHT22;1205;47.984;7.668;2022-07-29T01:22:28;20.80;99.90
2389;DHT22;1205;47.984;7.668;2022-07-29T01:30:35;20.60;99.90
2389;DHT22;1205;47.984;7.668;2022-07-29T01:33:10;20.50;99.90
2389;DHT22;1205;47.984;7.668;2022-07-29T01:35:39;20.60;99.90
2389;DHT22;1205;47.984;7.668;2022-07-29T01:40:44;20.40;99.90
2389;DHT22;1205;47.984;7.668;2022-07-29T01:43:26;20.50;99.90
2389;DHT22;1205;47.984;7.668;2022-07-29T01:45:59;20.40;99.90
2389;DHT22;1205;47.984;7.668;2022-07-29T01:48:37;20.30;99.90
2389;DHT22;1205;47.984;7.668;2022-07-29T01:51:08;20.10;99.90
2389;DHT22;1205;47.984;7.668;2022-07-29T01:53:44;20.30;99.90
2389;DHT22;1205;47.984;7.668;2022-07-29T01:56:12;20.30;99.90
2389;DHT22;1205;47.984;7.668;2022-07-29T01:58:41;20.30;99.90
2389;DHT22;1205;47.984;7.668;2022-07-29T02:01:09;20.10;99.90
2389;DHT22;1205;47.984;7.668;2022-07-29T02:03:38;20.20;99.90
2389;DHT22;1205;47.984;7.668;2022-07-29T02:06:06;20.10;99.90
2389;DHT22;1205;47.984;7.668;2022-07-29T02:08:33;20.30;99.90
2389;DHT22;1205;47.984;7.668;2022-07-29T02:11:00;20.10;99.90
2389;DHT22;1205;47.984;7.668;2022-07-29T02:13:28;20.10;99.90
2389;DHT22;1205;47.984;7.668;2022-07-29T02:15:58;20.20;99.90
2389;DHT22;1205;47.984;7.668;2022-07-29T02:18:28;20.20;99.90
2389;DHT22;1205;47.984;7.668;2022-07-29T02:20:56;20.20;99.90
2389;DHT22;1205;47.984;7.668;2022-07-29T02:23:24;20.20;99.90
2389;DHT22;1205;47.984;7.668;2022-07-29T02:25:53;20.20;99.90
2389;DHT22;1205;47.984;7.668;2022-07-29T02:28:25;20.10;99.90
2389;DHT22;1205;47.984;7.668;2022-07-29T02:30:53;20.20;99.90
2389;DHT22;1205;47.984;7.668;2022-07-29T02:33:21;20.30;99.90
2389;DHT22;1205;47.984;7.668;2022-07-29T02:35:49;20.40;99.90
2389;DHT22;1205;47.984;7.668;2022-07-29T02:38:16;20.40;99.90
2389;DHT22;1205;47.984;7.668;2022-07-29T02:41:15;20.40;99.90
2389;DHT22;1205;47.984;7.668;2022-07-29T02:43:43;20.50;99.90
2389;DHT22;1205;47.984;7.668;2022-07-29T02:46:15;20.30;99.90
2389;DHT22;1205;47.984;7.668;2022-07-29T02:48:55;20.40;99.90
2389;DHT22;1205;47.984;7.668;2022-07-29T02:51:33;20.40;99.90
2389;DHT22;1205;47.984;7.668;2022-07-29T02:54:05;20.50;99.90
2389;DHT22;1205;47.984;7.668;2022-07-29T02:56:33;20.30;99.90
2389;DHT22;1205;47.984;7.668;2022-07-29T02:59:04;20.20;99.90
2389;DHT22;1205;47.984;7.668;2022-07-29T03:01:32;20.30;99.90
2389;DHT22;1205;47.984;7.668;2022-07-29T03:04:01;20.40;99.90
2389;DHT22;1205;47.984;7.668;2022-07-29T03:06:28;20.30;99.90
2389;DHT22;1205;47.984;7.668;2022-07-29T03:08:56;20.40;99.90
2389;DHT22;1205;47.984;7.668;2022-07-29T03:11:23;20.40;99.90
2389;DHT22;1205;47.984;7.668;2022-07-29T03:13:49;20.50;99.90
2389;DHT22;1205;47.984;7.668;2022-07-29T03:16:15;20.40;99.90
2389;DHT22;1205;47.984;7.668;2022-07-29T03:18:41;20.40;99.90
2389;DHT22;1205;47.984;7.668;2022-07-29T03:21:08;20.30;99.90
2389;DHT22;1205;47.984;7.668;2022-07-29T03:23:33;19.90;99.90
2389;DHT22;1205;47.984;7.668;2022-07-29T03:25:59;19.90;99.90
2389;DHT22;1205;47.984;7.668;2022-07-29T03:28:25;19.90;99.90
2389;DHT22;1205;47.984;7.668;2022-07-29T03:30:53;19.80;99.90
2389;DHT22;1205;47.984;7.668;2022-07-29T03:33:19;19.60;99.90
2389;DHT22;1205;47.984;7.668;2022-07-29T03:35:45;19.70;99.90
2389;DHT22;1205;47.984;7.668;2022-07-29T03:38:11;19.90;99.90
2389;DHT22;1205;47.984;7.668;2022-07-29T03:40:48;19.90;99.90
2389;DHT22;1205;47.984;7.668;2022-07-29T03:43:16;19.70;99.90
2389;DHT22;1205;47.984;7.668;2022-07-29T03:45:49;19.80;99.90
2389;DHT22;1205;47.984;7.668;2022-07-29T03:48:17;19.60;99.90
2389;DHT22;1205;47.984;7.668;2022-07-29T03:50:44;19.50;99.90
2389;DHT22;1205;47.984;7.668;2022-07-29T03:53:12;19.40;99.90
2389;DHT22;1205;47.984;7.668;2022-07-29T03:55:41;19.40;99.90
2389;DHT22;1205;47.984;7.668;2022-07-29T03:58:09;19.40;99.90
2389;DHT22;1205;47.984;7.668;2022-07-29T04:00:36;19.30;99.90
2389;DHT22;1205;47.984;7.668;2022-07-29T04:03:04;19.30;99.90
2389;DHT22;1205;47.984;7.668;2022-07-29T04:05:30;19.30;99.90
2389;DHT22;1205;47.984;7.668;2022-07-29T04:07:56;19.50;99.90
2389;DHT22;1205;47.984;7.668;2022-07-29T04:10:21;19.60;99.90
2389;DHT22;1205;47.984;7.668;2022-07-29T04:12:49;19.80;99.90
2389;DHT22;1205;47.984;7.668;2022-07-29T04:15:14;19.60;99.90
2389;DHT22;1205;47.984;7.668;2022-07-29T04:17:40;19.50;99.90
2389;DHT22;1205;47.984;7.668;2022-07-29T04:20:06;19.40;99.90
2389;DHT22;1205;47.984;7.668;2022-07-29T04:22:32;19.50;99.90
2389;DHT22;1205;47.984;7.668;2022-07-29T04:24:58;19.50;99.90
2389;DHT22;1205;47.984;7.668;2022-07-29T04:27:23;19.40;99.90
2389;DHT22;1205;47.984;7.668;2022-07-29T04:29:49;19.40;99.90
2389;DHT22;1205;47.984;7.668;2022-07-29T04:32:15;19.50;99.90
2389;DHT22;1205;47.984;7.668;2022-07-29T04:34:40;19.50;99.90
2389;DHT22;1205;47.984;7.668;2022-07-29T04:37:06;19.50;99.90
2389;DHT22;1205;47.984;7.668;2022-07-29T04:39:32;19.80;99.90
2389;DHT22;1205;47.984;7.668;2022-07-29T04:41:57;19.70;99.90
2389;DHT22;1205;47.984;7.668;2022-07-29T04:44:23;20.00;99.90
2389;DHT22;1205;47.984;7.668;2022-07-29T04:46:49;20.00;99.90
2389;DHT22;1205;47.984;7.668;2022-07-29T04:49:15;20.00;99.90
2389;DHT22;1205;47.984;7.668;2022-07-29T04:51:40;20.00;99.90
2389;DHT22;1205;47.984;7.668;2022-07-29T04:54:06;20.10;99.90
2389;DHT22;1205;47.984;7.668;2022-07-29T04:56:32;20.20;99.90
2389;DHT22;1205;47.984;7.668;2022-07-29T04:58:58;20.30;99.90
2389;DHT22;1205;47.984;7.668;2022-07-29T05:01:23;20.50;99.90
2389;DHT22;1205;47.984;7.668;2022-07-29T05:03:49;20.50;99.90
2389;DHT22;1205;47.984;7.668;2022-07-29T05:06:15;20.30;99.90
2389;DHT22;1205;47.984;7.668;2022-07-29T05:08:41;20.10;99.90
2389;DHT22;1205;47.984;7.668;2022-07-29T05:11:07;20.00;99.90
2389;DHT22;1205;47.984;7.668;2022-07-29T05:13:32;19.90;99.90
2389;DHT22;1205;47.984;7.668;2022-07-29T05:15:58;19.90;99.90
2389;DHT22;1205;47.984;7.668;2022-07-29T05:18:25;20.00;99.90
2389;DHT22;1205;47.984;7.668;2022-07-29T05:20:51;20.00;99.90
2389;DHT22;1205;47.984;7.668;2022-07-29T05:23:16;19.90;99.90
2389;DHT22;1205;47.984;7.668;2022-07-29T05:25:42;20.00;99.90
2389;DHT22;1205;47.984;7.668;2022-07-29T05:28:08;20.20;99.90
2389;DHT22;1205;47.984;7.668;2022-07-29T05:30:34;20.40;99.90
2389;DHT22;1205;47.984;7.668;2022-07-29T05:33:00;20.30;99.90
2389;DHT22;1205;47.984;7.668;2022-07-29T05:35:29;20.40;99.70
2389;DHT22;1205;47.984;7.668;2022-07-29T05:37:54;20.60;99.90
2389;DHT22;1205;47.984;7.668;2022-07-29T05:40:20;20.60;99.90
2389;DHT22;1205;47.984;7.668;2022-07-29T05:42:46;20.70;99.90
2389;DHT22;1205;47.984;7.668;2022-07-29T05:45:13;20.70;99.10
2389;DHT22;1205;47.984;7.668;2022-07-29T05:47:40;20.50;98.70
2389;DHT22;1205;47.984;7.668;2022-07-29T05:50:06;20.50;98.80
2389;DHT22;1205;47.984;7.668;2022-07-29T05:52:32;20.50;98.90
2389;DHT22;1205;47.984;7.668;2022-07-29T05:55:01;20.60;98.90
2389;DHT22;1205;47.984;7.668;2022-07-29T05:57:29;20.70;98.50
2389;DHT22;1205;47.984;7.668;2022-07-29T05:59:55;20.70;98.20
2389;DHT22;1205;47.984;7.668;2022-07-29T06:02:21;20.90;97.80
2389;DHT22;1205;47.984;7.668;2022-07-29T06:04:46;21.10;97.60
2389;DHT22;1205;47.984;7.668;2022-07-29T06:07:12;21.20;96.80
2389;DHT22;1205;47.984;7.668;2022-07-29T06:09:38;21.20;96.30
2389;DHT22;1205;47.984;7.668;2022-07-29T06:12:04;21.60;96.60
2389;DHT22;1205;47.984;7.668;2022-07-29T06:14:30;21.90;95.90
2389;DHT22;1205;47.984;7.668;2022-07-29T06:16:56;22.00;93.90
2389;DHT22;1205;47.984;7.668;2022-07-29T06:19:21;22.30;94.00
2389;DHT22;1205;47.984;7.668;2022-07-29T06:21:47;22.60;93.00
2389;DHT22;1205;47.984;7.668;2022-07-29T06:24:14;23.00;92.20
2389;DHT22;1205;47.984;7.668;2022-07-29T06:26:41;23.30;91.60
2389;DHT22;1205;47.984;7.668;2022-07-29T06:29:08;23.30;91.70
2389;DHT22;1205;47.984;7.668;2022-07-29T06:31:34;23.40;91.70
2389;DHT22;1205;47.984;7.668;2022-07-29T06:34:00;23.50;91.40
2389;DHT22;1205;47.984;7.668;2022-07-29T06:36:25;23.70;91.30
2389;DHT22;1205;47.984;7.668;2022-07-29T06:38:51;23.80;90.70
2389;DHT22;1205;47.984;7.668;2022-07-29T06:41:17;23.80;90.20
2389;DHT22;1205;47.984;7.668;2022-07-29T06:43:44;23.80;90.80
2389;DHT22;1205;47.984;7.668;2022-07-29T06:46:15;24.10;91.20
2389;DHT22;1205;47.984;7.668;2022-07-29T06:48:46;24.40;92.00
2389;DHT22;1205;47.984;7.668;2022-07-29T06:51:13;25.00;91.50
2389;DHT22;1205;47.984;7.668;2022-07-29T06:53:39;25.10;90.60
2389;DHT22;1205;47.984;7.668;2022-07-29T06:56:06;25.20;90.50
2389;DHT22;1205;47.984;7.668;2022-07-29T06:58:34;25.00;90.40
2389;DHT22;1205;47.984;7.668;2022-07-29T07:01:05;25.00;90.70
2389;DHT22;1205;47.984;7.668;2022-07-29T07:03:31;25.10;90.50
2389;DHT22;1205;47.984;7.668;2022-07-29T07:05:57;25.20;90.50
2389;DHT22;1205;47.984;7.668;2022-07-29T07:08:24;25.50;90.30
2389;DHT22;1205;47.984;7.668;2022-07-29T07:10:50;25.50;89.50
2389;DHT22;1205;47.984;7.668;2022-07-29T07:13:16;25.70;89.80
2389;DHT22;1205;47.984;7.668;2022-07-29T07:15:43;25.70;88.50
2389;DHT22;1205;47.984;7.668;2022-07-29T07:18:09;25.90;89.70
2389;DHT22;1205;47.984;7.668;2022-07-29T07:20:35;26.10;88.30
2389;DHT22;1205;47.984;7.668;2022-07-29T07:23:01;25.80;87.20
2389;DHT22;1205;47.984;7.668;2022-07-29T07:25:27;26.10;87.70
2389;DHT22;1205;47.984;7.668;2022-07-29T07:27:53;26.20;87.30
2389;DHT22;1205;47.984;7.668;2022-07-29T07:30:19;26.10;86.60
2389;DHT22;1205;47.984;7.668;2022-07-29T07:32:45;25.90;87.30
2389;DHT22;1205;47.984;7.668;2022-07-29T07:35:11;26.00;88.00
2389;DHT22;1205;47.984;7.668;2022-07-29T07:37:37;26.00;88.00
2389;DHT22;1205;47.984;7.668;2022-07-29T07:40:04;26.10;87.60
2389;DHT22;1205;47.984;7.668;2022-07-29T07:42:30;26.20;87.80
2389;DHT22;1205;47.984;7.668;2022-07-29T07:44:56;26.10;87.80
2389;DHT22;1205;47.984;7.668;2022-07-29T07:47:22;26.20;87.80
2389;DHT22;1205;47.984;7.668;2022-07-29T07:49:50;26.10;88.50
2389;DHT22;1205;47.984;7.668;2022-07-29T07:52:17;26.00;89.30
2389;DHT22;1205;47.984;7.668;2022-07-29T07:54:43;26.10;89.10
2389;DHT22;1205;47.984;7.668;2022-07-29T07:57:10;26.10;90.00
2389;DHT22;1205;47.984;7.668;2022-07-29T07:59:36;26.10;89.80
2389;DHT22;1205;47.984;7.668;2022-07-29T08:02:03;26.00;89.90
2389;DHT22;1205;47.984;7.668;2022-07-29T08:04:28;26.10;90.10
2389;DHT22;1205;47.984;7.668;2022-07-29T08:06:55;26.10;88.90
2389;DHT22;1205;47.984;7.668;2022-07-29T08:09:22;26.20;89.00
2389;DHT22;1205;47.984;7.668;2022-07-29T08:11:48;26.20;88.20
2389;DHT22;1205;47.984;7.668;2022-07-29T08:14:13;26.30;89.00
2389;DHT22;1205;47.984;7.668;2022-07-29T08:16:41;26.30;87.80
2389;DHT22;1205;47.984;7.668;2022-07-29T08:19:08;26.40;88.10
2389;DHT22;1205;47.984;7.668;2022-07-29T08:21:35;26.60;88.40
2389;DHT22;1205;47.984;7.668;2022-07-29T08:24:01;26.70;86.20
2389;DHT22;1205;47.984;7.668;2022-07-29T08:26:46;26.90;86.50
2389;DHT22;1205;47.984;7.668;2022-07-29T08:29:12;27.30;85.00
2389;DHT22;1205;47.984;7.668;2022-07-29T08:31:38;27.50;84.70
2389;DHT22;1205;47.984;7.668;2022-07-29T08:34:04;28.00;84.00
2389;DHT22;1205;47.984;7.668;2022-07-29T08:36:31;27.90;80.60
2389;DHT22;1205;47.984;7.668;2022-07-29T08:38:57;28.00;79.60
2389;DHT22;1205;47.984;7.668;2022-07-29T08:41:23;28.20;79.70
2389;DHT22;1205;47.984;7.668;2022-07-29T08:43:50;28.40;80.10
2389;DHT22;1205;47.984;7.668;2022-07-29T08:46:16;28.60;79.10
2389;DHT22;1205;47.984;7.668;2022-07-29T08:48:42;28.50;80.20
2389;DHT22;1205;47.984;7.668;2022-07-29T08:51:16;28.50;79.30
2389;DHT22;1205;47.984;7.668;2022-07-29T08:53:44;28.50;79.40
2389;DHT22;1205;47.984;7.668;2022-07-29T08:56:14;28.30;77.50
2389;DHT22;1205;47.984;7.668;2022-07-29T08:58:40;27.90;78.60
2389;DHT22;1205;47.984;7.668;2022-07-29T09:01:07;27.90;78.50
2389;DHT22;1205;47.984;7.668;2022-07-29T09:03:36;28.10;80.30
2389;DHT22;1205;47.984;7.668;2022-07-29T09:06:03;27.90;80.50
2389;DHT22;1205;47.984;7.668;2022-07-29T09:08:31;27.90;81.00
2389;DHT22;1205;47.984;7.668;2022-07-29T09:10:57;27.80;79.90
2389;DHT22;1205;47.984;7.668;2022-07-29T09:13:23;27.40;79.40
2389;DHT22;1205;47.984;7.668;2022-07-29T09:15:50;27.30;81.60
2389;DHT22;1205;47.984;7.668;2022-07-29T09:18:44;27.50;82.50
2389;DHT22;1205;47.984;7.668;2022-07-29T09:21:16;27.50;82.60
2389;DHT22;1205;47.984;7.668;2022-07-29T09:24:07;27.60;82.70
2389;DHT22;1205;47.984;7.668;2022-07-29T09:26:36;27.70;83.00
2389;DHT22;1205;47.984;7.668;2022-07-29T09:29:21;27.70;82.40
2389;DHT22;1205;47.984;7.668;2022-07-29T09:31:54;27.80;81.40
2389;DHT22;1205;47.984;7.668;2022-07-29T09:34:25;27.90;80.80
2389;DHT22;1205;47.984;7.668;2022-07-29T09:36:53;27.90;78.70
2389;DHT22;1205;47.984;7.668;2022-07-29T09:39:38;28.10;80.00
2389;DHT22;1205;47.984;7.668;2022-07-29T09:42:12;27.70;78.20
2389;DHT22;1205;47.984;7.668;2022-07-29T09:44:49;27.40;78.50
2389;DHT22;1205;47.984;7.668;2022-07-29T09:47:17;27.50;80.10
2389;DHT22;1205;47.984;7.668;2022-07-29T09:49:54;27.80;78.90
2389;DHT22;1205;47.984;7.668;2022-07-29T09:52:21;27.70;78.90
2389;DHT22;1205;47.984;7.668;2022-07-29T09:54:47;27.90;79.90
2389;DHT22;1205;47.984;7.668;2022-07-29T09:57:28;27.90;78.40
2389;DHT22;1205;47.984;7.668;2022-07-29T10:02:30;28.30;78.90
2389;DHT22;1205;47.984;7.668;2022-07-29T10:04:57;28.50;79.30
2389;DHT22;1205;47.984;7.668;2022-07-29T10:07:24;28.50;77.60
2389;DHT22;1205;47.984;7.668;2022-07-29T10:09:56;28.60;76.80
2389;DHT22;1205;47.984;7.668;2022-07-29T10:12:23;28.20;77.70
2389;DHT22;1205;47.984;7.668;2022-07-29T10:14:50;28.30;78.20
2389;DHT22;1205;47.984;7.668;2022-07-29T10:17:16;28.70;77.40
2389;DHT22;1205;47.984;7.668;2022-07-29T10:19:43;28.80;77.40
2389;DHT22;1205;47.984;7.668;2022-07-29T10:22:10;28.90;76.80
2389;DHT22;1205;47.984;7.668;2022-07-29T10:24:37;28.70;76.30
2389;DHT22;1205;47.984;7.668;2022-07-29T10:27:07;28.80;77.00
2389;DHT22;1205;47.984;7.668;2022-07-29T10:29:33;28.90;76.30
2389;DHT22;1205;47.984;7.668;2022-07-29T10:32:10;28.80;76.40
2389;DHT22;1205;47.984;7.668;2022-07-29T10:35:06;28.90;76.40
2389;DHT22;1205;47.984;7.668;2022-07-29T10:43:56;29.00;74.80
2389;DHT22;1205;47.984;7.668;2022-07-29T10:46:24;28.90;75.70
2389;DHT22;1205;47.984;7.668;2022-07-29T10:49:20;28.90;76.70
2389;DHT22;1205;47.984;7.668;2022-07-29T10:59:49;28.60;77.30
2389;DHT22;1205;47.984;7.668;2022-07-29T11:05:09;28.70;77.80
2389;DHT22;1205;47.984;7.668;2022-07-29T11:07:36;28.60;78.40
2389;DHT22;1205;47.984;7.668;2022-07-29T11:15:10;28.60;79.70
2389;DHT22;1205;47.984;7.668;2022-07-29T11:20:41;28.60;77.20
2389;DHT22;1205;47.984;7.668;2022-07-29T11:23:28;28.80;77.60
2389;DHT22;1205;47.984;7.668;2022-07-29T11:29:03;29.10;76.80
2389;DHT22;1205;47.984;7.668;2022-07-29T11:31:42;28.90;74.50
2389;DHT22;1205;47.984;7.668;2022-07-29T11:34:25;28.80;74.90
2389;DHT22;1205;47.984;7.668;2022-07-29T11:39:44;28.50;74.10
2389;DHT22;1205;47.984;7.668;2022-07-29T11:50:14;28.50;74.60
2389;DHT22;1205;47.984;7.668;2022-07-29T11:52:47;28.30;72.80
2389;DHT22;1205;47.984;7.668;2022-07-29T11:55:18;28.60;74.30
2389;DHT22;1205;47.984;7.668;2022-07-29T11:57:51;28.70;75.30
2389;DHT22;1205;47.984;7.668;2022-07-29T12:00:45;28.60;73.00
2389;DHT22;1205;47.984;7.668;2022-07-29T12:03:11;28.80;74.10
2389;DHT22;1205;47.984;7.668;2022-07-29T12:05:40;28.70;76.00
2389;DHT22;1205;47.984;7.668;2022-07-29T12:08:16;28.90;77.40
2389;DHT22;1205;47.984;7.668;2022-07-29T12:10:45;28.80;75.90
2389;DHT22;1205;47.984;7.668;2022-07-29T12:13:12;28.70;75.70
2389;DHT22;1205;47.984;7.668;2022-07-29T12:15:39;28.70;77.60
2389;DHT22;1205;47.984;7.668;2022-07-29T12:18:15;28.80;75.10
2389;DHT22;1205;47.984;7.668;2022-07-29T12:20:42;29.10;75.80
2389;DHT22;1205;47.984;7.668;2022-07-29T12:23:08;28.90;72.00
2389;DHT22;1205;47.984;7.668;2022-07-29T12:25:37;29.00;73.60
2389;DHT22;1205;47.984;7.668;2022-07-29T12:28:05;28.90;75.00
2389;DHT22;1205;47.984;7.668;2022-07-29T12:30:37;29.00;76.00
2389;DHT22;1205;47.984;7.668;2022-07-29T12:35:57;28.80;76.10
2389;DHT22;1205;47.984;7.668;2022-07-29T12:38:23;28.80;74.80
2389;DHT22;1205;47.984;7.668;2022-07-29T12:40:51;28.30;72.90
2389;DHT22;1205;47.984;7.668;2022-07-29T12:43:19;28.10;73.80
2389;DHT22;1205;47.984;7.668;2022-07-29T12:45:50;28.20;74.70
2389;DHT22;1205;47.984;7.668;2022-07-29T12:48:17;28.10;75.00
2389;DHT22;1205;47.984;7.668;2022-07-29T12:50:58;28.30;76.70
2389;DHT22;1205;47.984;7.668;2022-07-29T12:53:25;28.50;77.30
2389;DHT22;1205;47.984;7.668;2022-07-29T12:55:53;28.50;77.10
2389;DHT22;1205;47.984;7.668;2022-07-29T12:58:30;28.50;74.80
2389;DHT22;1205;47.984;7.668;2022-07-29T13:01:13;28.30;73.90
2389;DHT22;1205;47.984;7.668;2022-07-29T13:09:03;28.30;72.60
2389;DHT22;1205;47.984;7.668;2022-07-29T13:11:43;28.40;74.00
2389;DHT22;1205;47.984;7.668;2022-07-29T13:14:11;28.40;74.30
2389;DHT22;1205;47.984;7.668;2022-07-29T13:17:02;28.40;74.60
2389;DHT22;1205;47.984;7.668;2022-07-29T13:19:36;28.50;76.10
2389;DHT22;1205;47.984;7.668;2022-07-29T13:22:03;28.40;75.50
2389;DHT22;1205;47.984;7.668;2022-07-29T13:24:29;28.40;74.50
2389;DHT22;1205;47.984;7.668;2022-07-29T13:26:55;28.50;75.30
2389;DHT22;1205;47.984;7.668;2022-07-29T13:29:21;28.30;74.70
2389;DHT22;1205;47.984;7.668;2022-07-29T13:31:46;28.50;75.10
2389;DHT22;1205;47.984;7.668;2022-07-29T13:34:12;28.70;75.90
2389;DHT22;1205;47.984;7.668;2022-07-29T13:36:38;28.80;74.30
2389;DHT22;1205;47.984;7.668;2022-07-29T13:39:04;28.80;74.40
2389;DHT22;1205;47.984;7.668;2022-07-29T13:41:30;28.70;73.50
2389;DHT22;1205;47.984;7.668;2022-07-29T13:43:55;28.60;74.80
2389;DHT22;1205;47.984;7.668;2022-07-29T13:46:21;28.60;75.20
2389;DHT22;1205;47.984;7.668;2022-07-29T13:48:47;28.60;75.80
2389;DHT22;1205;47.984;7.668;2022-07-29T13:51:13;28.20;73.90
2389;DHT22;1205;47.984;7.668;2022-07-29T13:53:38;28.00;73.60
2389;DHT22;1205;47.984;7.668;2022-07-29T13:56:04;27.90;72.90
2389;DHT22;1205;47.984;7.668;2022-07-29T13:58:36;27.80;73.90
2389;DHT22;1205;47.984;7.668;2022-07-29T14:01:03;27.90;74.50
2389;DHT22;1205;47.984;7.668;2022-07-29T14:03:29;28.10;73.80
2389;DHT22;1205;47.984;7.668;2022-07-29T14:05:54;27.90;73.50
2389;DHT22;1205;47.984;7.668;2022-07-29T14:08:21;27.90;74.80
2389;DHT22;1205;47.984;7.668;2022-07-29T14:10:47;27.80;76.00
2389;DHT22;1205;47.984;7.668;2022-07-29T14:13:13;28.00;75.60
2389;DHT22;1205;47.984;7.668;2022-07-29T14:15:38;27.90;73.70
2389;DHT22;1205;47.984;7.668;2022-07-29T14:18:04;28.00;74.40
2389;DHT22;1205;47.984;7.668;2022-07-29T14:20:31;27.80;73.80
2389;DHT22;1205;47.984;7.668;2022-07-29T14:22:56;27.80;74.70
2389;DHT22;1205;47.984;7.668;2022-07-29T14:25:23;27.90;75.00
2389;DHT22;1205;47.984;7.668;2022-07-29T14:27:52;27.80;73.30
2389;DHT22;1205;47.984;7.668;2022-07-29T14:30:18;27.90;74.00
2389;DHT22;1205;47.984;7.668;2022-07-29T14:32:44;28.00;73.70
2389;DHT22;1205;47.984;7.668;2022-07-29T14:35:10;28.20;73.60
2389;DHT22;1205;47.984;7.668;2022-07-29T14:37:36;28.30;71.80
2389;DHT22;1205;47.984;7.668;2022-07-29T14:40:03;28.20;72.70
2389;DHT22;1205;47.984;7.668;2022-07-29T14:42:30;28.20;73.00
2389;DHT22;1205;47.984;7.668;2022-07-29T14:44:58;28.30;72.30
2389;DHT22;1205;47.984;7.668;2022-07-29T14:47:24;28.30;72.20
2389;DHT22;1205;47.984;7.668;2022-07-29T14:49:50;28.20;71.70
2389;DHT22;1205;47.984;7.668;2022-07-29T14:52:16;28.20;73.00
2389;DHT22;1205;47.984;7.668;2022-07-29T14:54:41;28.30;71.60
2389;DHT22;1205;47.984;7.668;2022-07-29T14:57:07;28.10;71.60
2389;DHT22;1205;47.984;7.668;2022-07-29T14:59:34;28.10;71.80
2389;DHT22;1205;47.984;7.668;2022-07-29T15:02:00;28.00;71.30
2389;DHT22;1205;47.984;7.668;2022-07-29T15:04:28;28.20;70.80
2389;DHT22;1205;47.984;7.668;2022-07-29T15:06:53;28.10;69.90
2389;DHT22;1205;47.984;7.668;2022-07-29T15:09:19;28.20;70.10
2389;DHT22;1205;47.984;7.668;2022-07-29T15:11:48;28.10;69.80
2389;DHT22;1205;47.984;7.668;2022-07-29T15:14:14;28.10;70.50
2389;DHT22;1205;47.984;7.668;2022-07-29T15:16:39;28.20;70.20
2389;DHT22;1205;47.984;7.668;2022-07-29T15:19:08;28.00;70.60
2389;DHT22;1205;47.984;7.668;2022-07-29T15:21:34;27.90;69.20
2389;DHT22;1205;47.984;7.668;2022-07-29T15:24:02;28.10;70.50
2389;DHT22;1205;47.984;7.668;2022-07-29T15:26:28;28.20;70.00
2389;DHT22;1205;47.984;7.668;2022-07-29T15:28:54;28.30;70.50
2389;DHT22;1205;47.984;7.668;2022-07-29T15:31:21;28.30;70.70
2389;DHT22;1205;47.984;7.668;2022-07-29T15:33:47;28.40;70.50
2389;DHT22;1205;47.984;7.668;2022-07-29T15:36:13;28.30;69.40
2389;DHT22;1205;47.984;7.668;2022-07-29T15:38:39;28.10;69.00
2389;DHT22;1205;47.984;7.668;2022-07-29T15:41:06;28.20;69.70
2389;DHT22;1205;47.984;7.668;2022-07-29T15:43:32;28.20;68.80
2389;DHT22;1205;47.984;7.668;2022-07-29T15:46:02;27.90;68.50
2389;DHT22;1205;47.984;7.668;2022-07-29T15:48:46;28.00;69.40
2389;DHT22;1205;47.984;7.668;2022-07-29T15:51:15;28.20;71.00
2389;DHT22;1205;47.984;7.668;2022-07-29T15:53:40;28.10;68.80
2389;DHT22;1205;47.984;7.668;2022-07-29T15:56:06;28.10;69.30
2389;DHT22;1205;47.984;7.668;2022-07-29T15:58:34;28.20;69.60
2389;DHT22;1205;47.984;7.668;2022-07-29T16:01:00;28.10;68.50
2389;DHT22;1205;47.984;7.668;2022-07-29T16:03:25;28.30;70.10
2389;DHT22;1205;47.984;7.668;2022-07-29T16:05:51;28.30;69.00
2389;DHT22;1205;47.984;7.668;2022-07-29T16:08:17;28.20;68.90
2389;DHT22;1205;47.984;7.668;2022-07-29T16:10:42;28.20;67.90
2389;DHT22;1205;47.984;7.668;2022-07-29T16:13:08;28.10;66.50
2389;DHT22;1205;47.984;7.668;2022-07-29T16:15:34;28.00;67.30
2389;DHT22;1205;47.984;7.668;2022-07-29T16:17:59;28.00;67.50
2389;DHT22;1205;47.984;7.668;2022-07-29T16:20:26;28.10;67.70
2389;DHT22;1205;47.984;7.668;2022-07-29T16:22:52;28.10;67.30
2389;DHT22;1205;47.984;7.668;2022-07-29T16:25:18;28.20;66.50
2389;DHT22;1205;47.984;7.668;2022-07-29T16:27:43;28.30;66.30
2389;DHT22;1205;47.984;7.668;2022-07-29T16:30:09;28.40;67.10
2389;DHT22;1205;47.984;7.668;2022-07-29T16:32:35;28.40;67.00
2389;DHT22;1205;47.984;7.668;2022-07-29T16:35:01;28.30;67.30
2389;DHT22;1205;47.984;7.668;2022-07-29T16:37:29;28.30;66.80
2389;DHT22;1205;47.984;7.668;2022-07-29T16:39:58;28.20;65.50
2389;DHT22;1205;47.984;7.668;2022-07-29T16:42:23;28.10;65.80
2389;DHT22;1205;47.984;7.668;2022-07-29T16:44:49;28.00;65.90
2389;DHT22;1205;47.984;7.668;2022-07-29T16:47:15;28.10;66.50
2389;DHT22;1205;47.984;7.668;2022-07-29T16:49:41;28.20;66.70
2389;DHT22;1205;47.984;7.668;2022-07-29T16:52:06;28.20;66.00
2389;DHT22;1205;47.984;7.668;2022-07-29T16:54:32;28.10;65.50
2389;DHT22;1205;47.984;7.668;2022-07-29T16:56:58;28.10;66.00
2389;DHT22;1205;47.984;7.668;2022-07-29T16:59:27;28.10;65.30
2389;DHT22;1205;47.984;7.668;2022-07-29T17:01:52;28.10;64.70
2389;DHT22;1205;47.984;7.668;2022-07-29T17:04:18;28.20;65.00
2389;DHT22;1205;47.984;7.668;2022-07-29T17:06:44;28.10;64.60
2389;DHT22;1205;47.984;7.668;2022-07-29T17:09:11;28.20;65.70